Terminal Aerodrome Forecast
Issued by NWS Flagstaff, AZ

Home | Current Version | Previous Version | Text Only | Print | Product List | Glossary On
Versions: 1 2 3 4 5 6 7 8 9 10 11 12 13 14 15 16 17 18 19 20 21 22 23 24
000
FTUS45 KFGZ 050827 AAA
TAFFLG
TAF AMD
KFLG 050827Z 0508/0606 VRB05KT P6SM -SHRA SCT025 BKN035 BKN090
      TEMPO 0508/0509 4SM -TSRA BR BKN025CB OVC035
     FM050930 VRB03KT P6SM SCT025
     FM051800 22014G23KT P6SM SCT050
     FM060230 22006KT P6SM SCT050=

USA.gov is the U.S. government's official web portal to all federal, state and local government web resources and services.